createdAt,value
2023-01-05T00:00:32.606Z,94.78
2023-01-05T00:02:58.856Z,94.89
2023-01-05T00:05:25.177Z,94.78
2023-01-05T00:07:51.558Z,94.89
2023-01-05T00:10:17.880Z,95.14
2023-01-05T00:12:44.221Z,95.08
2023-01-05T00:15:10.692Z,94.95
2023-01-05T00:17:37.086Z,94.96
2023-01-05T00:20:03.440Z,94.81
2023-01-05T00:22:29.812Z,94.40
2023-01-05T00:24:56.159Z,94.48
2023-01-05T00:27:22.508Z,94.37
2023-01-05T00:29:48.823Z,94.34
2023-01-05T00:32:15.166Z,94.13
2023-01-05T00:34:41.523Z,93.95
2023-01-05T00:37:07.911Z,93.36
2023-01-05T00:39:34.277Z,93.36
2023-01-05T00:42:00.646Z,93.13
2023-01-05T00:44:27.010Z,93.10
2023-01-05T00:46:53.387Z,93.30
2023-01-05T00:49:19.737Z,93.11
2023-01-05T00:51:46.086Z,92.14
2023-01-05T00:54:12.466Z,91.92
2023-01-05T00:56:38.793Z,92.14
2023-01-05T00:59:05.127Z,92.11
2023-01-05T01:01:31.573Z,92.82
2023-01-05T01:03:57.846Z,92.80
2023-01-05T01:06:24.205Z,92.74
2023-01-05T01:08:50.620Z,92.77
2023-01-05T01:11:16.921Z,91.66
2023-01-05T01:13:43.283Z,91.29
2023-01-05T01:16:09.724Z,90.94
2023-01-05T01:18:36.057Z,91.17
2023-01-05T01:21:02.435Z,91.04
2023-01-05T01:23:28.757Z,91.95
2023-01-05T01:25:55.148Z,91.18
2023-01-05T01:28:21.476Z,91.42
2023-01-05T01:30:47.868Z,90.44
2023-01-05T01:33:14.203Z,90.48
2023-01-05T01:35:40.548Z,90.39
2023-01-05T01:38:06.938Z,90.64
2023-01-05T01:40:33.275Z,90.95
2023-01-05T01:42:59.628Z,91.10
2023-01-05T01:45:25.947Z,91.23
2023-01-05T01:47:52.334Z,91.91
2023-01-05T01:50:18.645Z,91.79
2023-01-05T01:52:45.019Z,91.49
2023-01-05T01:55:11.341Z,91.63
2023-01-05T01:57:37.691Z,91.92
2023-01-05T02:00:04.045Z,92.04
2023-01-05T02:02:30.569Z,92.02
2023-01-05T02:04:56.962Z,91.94
2023-01-05T02:07:23.196Z,91.91
2023-01-05T02:09:49.547Z,92.14
2023-01-05T02:12:15.925Z,92.09
2023-01-05T02:14:42.242Z,92.48
2023-01-05T02:17:08.626Z,92.39
2023-01-05T02:19:34.987Z,93.09
2023-01-05T02:22:01.417Z,92.79
2023-01-05T02:24:27.750Z,92.74
2023-01-05T02:26:54.096Z,93.14
2023-01-05T02:29:20.457Z,93.33
2023-01-05T02:31:46.863Z,93.28
2023-01-05T02:34:13.212Z,93.76
2023-01-05T02:36:39.598Z,94.08
2023-01-05T02:39:05.950Z,94.46
2023-01-05T02:41:32.284Z,94.60
2023-01-05T02:43:58.658Z,94.39
2023-01-05T02:46:25.117Z,94.23
2023-01-05T02:48:51.409Z,94.24
2023-01-05T02:51:17.780Z,94.01
2023-01-05T02:53:44.095Z,93.70
2023-01-05T02:56:10.500Z,93.88
2023-01-05T02:58:36.850Z,94.04
2023-01-05T03:01:03.254Z,94.06
2023-01-05T03:03:29.587Z,94.02
2023-01-05T03:05:55.930Z,93.04
2023-01-05T03:08:26.318Z,93.22
2023-01-05T03:10:48.605Z,93.48
2023-01-05T03:13:14.949Z,94.05
2023-01-05T03:15:41.323Z,94.58
2023-01-05T03:18:07.613Z,95.25
2023-01-05T03:20:33.957Z,94.27
2023-01-05T03:23:00.271Z,93.98
2023-01-05T03:25:26.654Z,93.97
2023-01-05T03:27:52.969Z,93.90
2023-01-05T03:30:19.325Z,94.03
2023-01-05T03:32:45.657Z,93.95
2023-01-05T03:35:12.005Z,94.27
2023-01-05T03:37:38.382Z,94.58
2023-01-05T03:40:04.697Z,95.02
2023-01-05T03:42:31.063Z,95.88
2023-01-05T03:44:57.407Z,95.63
2023-01-05T03:47:23.749Z,95.56
2023-01-05T03:49:50.120Z,95.12
2023-01-05T03:52:16.468Z,95.00
2023-01-05T03:54:42.887Z,94.96
2023-01-05T03:57:09.200Z,95.07
2023-01-05T03:59:35.584Z,95.17
2023-01-05T04:02:01.978Z,95.31
2023-01-05T04:04:28.288Z,95.29
2023-01-05T04:06:54.621Z,94.98
2023-01-05T04:09:20.967Z,95.21
2023-01-05T04:11:47.321Z,95.06
2023-01-05T04:14:13.650Z,94.86
2023-01-05T04:16:40.040Z,94.53
2023-01-05T04:19:06.371Z,94.54
2023-01-05T04:21:32.708Z,94.77
2023-01-05T04:23:59.070Z,95.07
2023-01-05T04:26:25.440Z,95.89
2023-01-05T04:28:51.817Z,95.87
2023-01-05T04:31:18.170Z,95.43
2023-01-05T04:33:44.502Z,94.89
2023-01-05T04:36:10.875Z,95.05
2023-01-05T04:38:37.232Z,94.98
2023-01-05T04:41:03.566Z,95.17
2023-01-05T04:43:30.012Z,94.82
2023-01-05T04:45:56.342Z,94.29
2023-01-05T04:48:22.687Z,95.07
2023-01-05T04:50:49.026Z,94.90
2023-01-05T04:53:15.427Z,93.88
2023-01-05T04:55:41.777Z,94.12
2023-01-05T04:58:11.816Z,93.46
2023-01-05T05:00:34.481Z,93.42
2023-01-05T05:03:00.915Z,94.14
2023-01-05T05:05:27.183Z,94.08
2023-01-05T05:07:53.516Z,93.48
2023-01-05T05:10:19.835Z,93.21
2023-01-05T05:12:46.217Z,93.25
2023-01-05T05:15:12.527Z,92.94
2023-01-05T05:17:38.861Z,92.65
2023-01-05T05:20:05.237Z,92.66
2023-01-05T05:22:31.560Z,91.85
2023-01-05T05:24:57.882Z,91.18
2023-01-05T05:27:24.316Z,91.68
2023-01-05T05:29:50.600Z,92.08
2023-01-05T05:32:16.959Z,92.05
2023-01-05T05:34:43.324Z,92.84
2023-01-05T05:37:09.696Z,93.84
2023-01-05T05:39:36.049Z,94.62
2023-01-05T05:42:02.415Z,95.05
2023-01-05T05:44:28.769Z,95.54
2023-01-05T05:46:55.181Z,94.95
2023-01-05T05:49:21.466Z,93.86
2023-01-05T05:51:47.863Z,93.32
2023-01-05T05:54:14.231Z,93.19
2023-01-05T05:56:40.605Z,93.58
2023-01-05T05:59:06.959Z,93.01
2023-01-05T06:01:33.454Z,93.39
2023-01-05T06:03:59.969Z,93.72
2023-01-05T06:06:26.356Z,92.84
2023-01-05T06:08:52.714Z,92.12
2023-01-05T06:11:19.169Z,92.66
2023-01-05T06:13:45.525Z,92.88
2023-01-05T06:16:11.934Z,93.29
2023-01-05T06:18:38.253Z,93.85
2023-01-05T06:21:04.643Z,94.03
2023-01-05T06:23:30.950Z,94.36
2023-01-05T06:25:57.308Z,94.67
2023-01-05T06:28:23.687Z,94.58
2023-01-05T06:30:50.026Z,93.43
2023-01-05T06:33:16.414Z,93.08
2023-01-05T06:35:42.810Z,92.71
2023-01-05T06:38:09.169Z,92.33
2023-01-05T06:40:35.552Z,91.26
2023-01-05T06:43:01.925Z,90.34
2023-01-05T06:45:28.312Z,89.72
2023-01-05T06:47:54.621Z,89.64
2023-01-05T06:50:21.004Z,90.51
2023-01-05T06:52:47.325Z,90.45
2023-01-05T06:55:13.686Z,90.07
2023-01-05T06:57:40.028Z,90.73
2023-01-05T07:00:06.372Z,91.15
2023-01-05T07:02:32.748Z,91.30
2023-01-05T07:04:59.140Z,91.34
2023-01-05T07:07:25.550Z,91.35
2023-01-05T07:09:51.885Z,91.95
2023-01-05T07:12:18.237Z,92.06
2023-01-05T07:14:44.595Z,91.62
2023-01-05T07:17:10.957Z,92.09
2023-01-05T07:19:37.335Z,92.80
2023-01-05T07:22:03.624Z,92.72
2023-01-05T07:24:30.021Z,93.36
2023-01-05T07:26:56.370Z,92.39
2023-01-05T07:29:22.764Z,92.60
2023-01-05T07:31:49.152Z,92.28
2023-01-05T07:34:15.446Z,91.85
2023-01-05T07:36:41.816Z,91.69
2023-01-05T07:39:08.161Z,90.48
2023-01-05T07:41:34.541Z,88.24
2023-01-05T07:44:00.854Z,86.03
2023-01-05T07:46:27.186Z,84.69
2023-01-05T07:48:53.578Z,83.75
2023-01-05T07:51:19.993Z,83.35
2023-01-05T07:53:46.315Z,83.65
2023-01-05T07:56:12.669Z,84.07
2023-01-05T07:58:38.995Z,84.68
2023-01-05T08:01:05.429Z,85.83
2023-01-05T08:03:31.666Z,86.36
2023-01-05T08:05:57.985Z,85.38
2023-01-05T08:08:24.811Z,85.20
2023-01-05T08:10:50.705Z,85.74
2023-01-05T08:13:17.083Z,85.42
2023-01-05T08:15:49.065Z,85.36
2023-01-05T08:18:09.756Z,84.65
2023-01-05T08:20:36.144Z,84.53
2023-01-05T08:23:02.533Z,84.82
2023-01-05T08:25:28.892Z,84.97
2023-01-05T08:27:55.288Z,85.10
2023-01-05T08:30:21.657Z,85.21
2023-01-05T08:32:48.047Z,85.33
2023-01-05T08:35:14.426Z,85.51
2023-01-05T08:37:40.791Z,85.36
2023-01-05T08:40:07.167Z,84.95
2023-01-05T08:42:33.539Z,83.46
2023-01-05T08:44:59.912Z,81.90
2023-01-05T08:47:28.504Z,81.15
2023-01-05T08:49:52.653Z,80.09
2023-01-05T08:52:19.036Z,78.64
2023-01-05T08:54:45.394Z,78.79
2023-01-05T08:57:11.761Z,76.91
2023-01-05T08:59:38.123Z,75.43
2023-01-05T09:02:04.613Z,73.70
2023-01-05T09:04:30.849Z,72.41
2023-01-05T09:06:57.263Z,72.80
2023-01-05T09:09:23.630Z,71.74
2023-01-05T09:11:50.008Z,71.24
2023-01-05T09:14:16.379Z,67.68
2023-01-05T09:17:06.020Z,69.05
2023-01-05T09:19:09.097Z,67.63
2023-01-05T09:21:35.435Z,65.46
2023-01-05T09:24:01.796Z,64.02
2023-01-05T09:26:28.141Z,62.47
2023-01-05T09:28:54.472Z,62.03
2023-01-05T09:31:20.946Z,60.70
2023-01-05T09:33:47.238Z,61.39
2023-01-05T09:36:13.570Z,61.07
2023-01-05T09:38:46.685Z,60.57
2023-01-05T09:41:06.277Z,60.42
2023-01-05T09:43:32.601Z,60.14
2023-01-05T09:45:58.985Z,58.53
2023-01-05T09:48:25.401Z,59.81
2023-01-05T09:50:51.676Z,60.46
2023-01-05T09:53:18.004Z,60.08
2023-01-05T09:55:44.355Z,57.15
2023-01-05T09:58:10.734Z,56.97
2023-01-05T10:00:37.078Z,57.17
2023-01-05T10:03:03.426Z,56.97
2023-01-05T10:05:29.841Z,57.02
2023-01-05T10:07:56.105Z,55.93
2023-01-05T10:10:28.099Z,56.28
2023-01-05T10:12:48.823Z,55.74
2023-01-05T10:15:15.178Z,56.81
2023-01-05T10:17:43.241Z,55.57
2023-01-05T10:20:07.894Z,55.51
2023-01-05T10:22:38.595Z,56.19
2023-01-05T10:25:00.613Z,56.70
2023-01-05T10:27:27.157Z,56.71
2023-01-05T10:29:53.301Z,56.99
2023-01-05T10:32:19.633Z,55.90
2023-01-05T10:34:46.020Z,56.47
2023-01-05T10:37:12.372Z,56.17
2023-01-05T10:39:38.752Z,56.79
2023-01-05T10:42:05.103Z,55.47
2023-01-05T10:44:31.461Z,55.09
2023-01-05T10:46:57.890Z,52.64
2023-01-05T10:49:24.208Z,52.84
2023-01-05T10:51:56.299Z,52.93
2023-01-05T10:54:16.926Z,53.55
2023-01-05T10:56:43.286Z,53.13
2023-01-05T10:59:09.686Z,52.96
2023-01-05T11:01:36.078Z,52.31
2023-01-05T11:06:28.722Z,50.76
2023-01-05T11:08:55.091Z,49.96
2023-01-05T11:11:21.498Z,49.57
2023-01-05T11:13:47.813Z,49.79
2023-01-05T11:16:14.193Z,49.37
2023-01-05T11:18:40.526Z,49.67
2023-01-05T11:21:06.858Z,51.00
2023-01-05T11:23:33.195Z,51.31
2023-01-05T11:25:59.542Z,51.42
2023-01-05T11:28:25.925Z,49.58
2023-01-05T11:30:52.347Z,50.40
2023-01-05T11:33:24.904Z,50.71
2023-01-05T11:35:44.954Z,49.78
2023-01-05T11:38:11.318Z,49.99
2023-01-05T11:40:37.684Z,49.22
2023-01-05T11:43:04.035Z,48.69
2023-01-05T11:45:30.403Z,48.89
2023-01-05T11:47:56.765Z,48.79
2023-01-05T11:50:23.173Z,49.17
2023-01-05T11:52:49.484Z,48.77
2023-01-05T11:55:15.903Z,48.34
2023-01-05T11:57:42.261Z,47.90
2023-01-05T12:00:08.682Z,47.64
2023-01-05T12:02:35.031Z,47.12
2023-01-05T12:05:01.436Z,46.80
2023-01-05T12:07:27.751Z,46.91
2023-01-05T12:09:54.095Z,47.48
2023-01-05T12:12:20.459Z,48.31
2023-01-05T12:14:46.925Z,48.87
2023-01-05T12:17:13.262Z,49.30
2023-01-05T12:19:39.635Z,48.73
2023-01-05T12:22:06.026Z,46.79
2023-01-05T12:24:32.462Z,47.28
2023-01-05T12:26:58.837Z,48.43
2023-01-05T12:34:17.918Z,50.75
2023-01-05T12:36:44.247Z,50.91
2023-01-05T12:39:10.697Z,50.60
2023-01-05T12:41:37.022Z,51.00
2023-01-05T12:44:03.385Z,51.52
2023-01-05T12:46:29.754Z,51.65
2023-01-05T12:48:56.109Z,51.33
2023-01-05T12:51:22.448Z,51.37
2023-01-05T12:53:48.808Z,52.09
2023-01-05T12:56:15.167Z,51.72
2023-01-05T12:58:41.510Z,51.67
2023-01-05T13:01:07.980Z,51.95
2023-01-05T13:03:34.251Z,51.69
2023-01-05T13:06:00.609Z,51.35
2023-01-05T13:08:26.958Z,50.62
2023-01-05T13:10:53.282Z,50.40
2023-01-05T13:13:19.680Z,49.71
2023-01-05T13:15:46.038Z,49.47
2023-01-05T13:18:12.394Z,49.52
2023-01-05T13:20:38.736Z,48.81
2023-01-05T13:23:05.083Z,48.22
2023-01-05T13:25:31.450Z,48.84
2023-01-05T13:27:57.797Z,48.67
2023-01-05T13:30:24.157Z,49.17
2023-01-05T13:32:50.497Z,49.02
2023-01-05T13:35:16.868Z,49.30
2023-01-05T13:37:43.247Z,50.50
2023-01-05T13:40:09.564Z,51.14
2023-01-05T13:42:35.974Z,50.93
2023-01-05T13:45:02.289Z,50.63
2023-01-05T13:47:28.735Z,50.20
2023-01-05T13:49:55.017Z,49.85
2023-01-05T13:52:21.368Z,49.14
2023-01-05T13:55:01.056Z,49.75
2023-01-05T13:57:14.070Z,50.72
2023-01-05T13:59:49.137Z,51.74
2023-01-05T14:02:06.807Z,52.38
2023-01-05T14:04:33.375Z,52.89
2023-01-05T14:06:59.523Z,53.58
2023-01-05T14:09:25.922Z,53.87
2023-01-05T14:11:52.301Z,54.61
2023-01-05T14:14:18.626Z,54.72
2023-01-05T14:16:45.037Z,55.00
2023-01-05T14:19:11.372Z,55.27
2023-01-05T14:21:37.754Z,55.84
2023-01-05T14:24:04.079Z,56.30
2023-01-05T14:26:30.425Z,56.47
2023-01-05T14:28:56.751Z,56.57
2023-01-05T14:31:23.164Z,57.18
2023-01-05T14:33:49.468Z,57.70
2023-01-05T14:36:15.878Z,57.92
2023-01-05T14:38:42.243Z,58.31
2023-01-05T14:41:08.601Z,58.58
2023-01-05T14:43:34.948Z,59.02
2023-01-05T14:46:01.382Z,59.31
2023-01-05T14:48:27.663Z,59.71
2023-01-05T14:50:54.003Z,60.01
2023-01-05T14:53:20.449Z,60.62
2023-01-05T14:55:46.707Z,60.93
2023-01-05T14:58:13.079Z,61.18
2023-01-05T15:00:39.425Z,61.39
2023-01-05T15:03:05.797Z,61.70
2023-01-05T15:05:32.193Z,61.90
2023-01-05T15:10:24.868Z,62.23
2023-01-05T15:12:52.922Z,62.52
2023-01-05T15:15:17.579Z,62.88
2023-01-05T15:17:43.975Z,62.91
2023-01-05T15:20:10.327Z,63.11
2023-01-05T15:22:38.421Z,63.39
2023-01-05T15:25:03.164Z,63.66
2023-01-05T15:27:29.478Z,66.95
2023-01-05T15:29:55.815Z,66.66
2023-01-05T15:32:22.204Z,64.07
2023-01-05T15:34:48.544Z,64.27
2023-01-05T15:37:14.910Z,64.55
2023-01-05T15:39:41.355Z,64.84
2023-01-05T15:42:07.637Z,65.17
2023-01-05T15:44:33.986Z,65.56
2023-01-05T15:47:00.340Z,65.78
2023-01-05T15:49:26.679Z,66.02
2023-01-05T15:51:53.008Z,66.17
2023-01-05T15:54:19.393Z,66.25
2023-01-05T15:56:45.741Z,66.43
2023-01-05T15:59:12.085Z,66.34
2023-01-05T16:01:38.455Z,66.04
2023-01-05T16:04:04.834Z,66.00
2023-01-05T16:06:31.159Z,66.23
2023-01-05T16:08:57.564Z,66.28
2023-01-05T16:11:23.888Z,66.45
2023-01-05T16:13:50.229Z,66.73
2023-01-05T16:16:43.186Z,66.74
2023-01-05T16:18:42.935Z,66.66
2023-01-05T16:21:09.304Z,66.89
2023-01-05T16:23:35.653Z,67.15
2023-01-05T16:26:01.978Z,67.22
2023-01-05T16:28:28.359Z,67.27
2023-01-05T16:30:54.754Z,67.44
2023-01-05T16:33:21.052Z,67.56
2023-01-05T16:35:47.375Z,67.64
2023-01-05T16:38:13.756Z,68.12
2023-01-05T16:40:40.172Z,68.14
2023-01-05T16:43:06.484Z,68.35
2023-01-05T16:45:32.799Z,68.68
2023-01-05T16:47:59.191Z,68.96
2023-01-05T16:50:25.488Z,69.34
2023-01-05T16:52:51.880Z,69.56
2023-01-05T16:55:23.721Z,69.73
2023-01-05T16:57:44.666Z,70.25
2023-01-05T17:00:10.979Z,70.55
2023-01-05T17:02:37.324Z,70.75
2023-01-05T17:05:03.680Z,70.84
2023-01-05T17:07:30.060Z,70.95
2023-01-05T17:09:56.466Z,71.13
2023-01-05T17:12:22.791Z,71.09
2023-01-05T17:14:49.091Z,71.17
2023-01-05T17:17:15.470Z,71.17
2023-01-05T17:19:41.788Z,71.39
2023-01-05T17:22:10.354Z,71.39
2023-01-05T17:24:34.507Z,71.69
2023-01-05T17:27:00.851Z,71.87
2023-01-05T17:29:27.174Z,72.73
2023-01-05T17:31:53.568Z,72.37
2023-01-05T17:34:19.935Z,72.48
2023-01-05T17:36:46.324Z,72.25
2023-01-05T17:39:12.643Z,72.06
2023-01-05T17:41:39.020Z,71.99
2023-01-05T17:44:05.372Z,71.96
2023-01-05T17:46:31.711Z,71.86
2023-01-05T17:48:58.046Z,72.06
2023-01-05T17:51:24.385Z,72.07
2023-01-05T17:53:50.721Z,72.15
2023-01-05T17:56:18.668Z,72.36
2023-01-05T17:58:43.428Z,72.67
2023-01-05T18:01:09.818Z,72.48
2023-01-05T18:03:36.126Z,72.32
2023-01-05T18:06:02.511Z,72.67
2023-01-05T18:08:28.877Z,72.80
2023-01-05T18:10:55.219Z,72.93
2023-01-05T18:13:22.852Z,72.96
2023-01-05T18:15:47.886Z,73.44
2023-01-05T18:18:14.220Z,73.91
2023-01-05T18:20:40.598Z,74.24
2023-01-05T18:25:33.303Z,74.93
2023-01-05T18:27:59.670Z,75.59
2023-01-05T18:30:26.016Z,75.95
2023-01-05T18:32:52.346Z,76.55
2023-01-05T18:35:18.729Z,76.79
2023-01-05T18:37:45.062Z,76.94
2023-01-05T18:40:11.523Z,76.73
2023-01-05T18:42:37.810Z,77.02
2023-01-05T18:45:13.850Z,77.11
2023-01-05T18:47:30.511Z,77.88
2023-01-05T18:49:56.870Z,78.36
2023-01-05T18:52:23.204Z,78.61
2023-01-05T18:54:49.538Z,78.76
2023-01-05T18:57:15.925Z,78.86
2023-01-05T18:59:42.317Z,79.06
2023-01-05T19:02:08.671Z,79.30
2023-01-05T19:04:35.088Z,79.36
2023-01-05T19:07:01.334Z,79.38
2023-01-05T19:09:27.703Z,79.34
2023-01-05T19:11:54.055Z,79.36
2023-01-05T19:14:20.430Z,79.59
2023-01-05T19:16:46.796Z,79.54
2023-01-05T19:19:13.165Z,79.57
2023-01-05T19:21:39.493Z,80.14
2023-01-05T19:24:05.882Z,80.44
2023-01-05T19:26:32.192Z,80.79
2023-01-05T19:28:58.619Z,81.12
2023-01-05T19:31:25.055Z,80.98
2023-01-05T19:33:51.404Z,80.78
2023-01-05T19:36:17.767Z,80.86
2023-01-05T19:38:44.128Z,80.98
2023-01-05T19:41:10.454Z,80.86
2023-01-05T19:43:36.863Z,80.72
2023-01-05T19:46:03.288Z,80.84
2023-01-05T19:48:29.573Z,80.75
2023-01-05T19:50:55.953Z,80.61
2023-01-05T19:53:22.359Z,80.54
2023-01-05T19:55:48.720Z,80.24
2023-01-05T19:58:15.106Z,79.98
2023-01-05T20:00:41.410Z,79.72
2023-01-05T20:03:07.866Z,79.38
2023-01-05T20:05:34.207Z,79.45
2023-01-05T20:08:00.589Z,79.78
2023-01-05T20:10:26.995Z,79.95
2023-01-05T20:12:53.283Z,80.75
2023-01-05T20:15:19.625Z,81.03
2023-01-05T20:17:46.018Z,81.68
2023-01-05T20:20:12.405Z,82.25
2023-01-05T20:22:38.805Z,82.68
2023-01-05T20:25:05.177Z,83.08
2023-01-05T20:27:31.559Z,83.15
2023-01-05T20:29:57.923Z,83.75
2023-01-05T20:32:24.280Z,83.42
2023-01-05T20:34:50.646Z,83.60
2023-01-05T20:37:17.034Z,83.82
2023-01-05T20:39:43.386Z,83.84
2023-01-05T20:42:09.764Z,83.89
2023-01-05T20:44:36.142Z,84.03
2023-01-05T20:47:02.505Z,83.85
2023-01-05T20:49:28.829Z,83.77
2023-01-05T20:51:55.218Z,83.81
2023-01-05T20:54:21.644Z,84.18
2023-01-05T20:56:47.987Z,84.10
2023-01-05T20:59:14.330Z,83.92
2023-01-05T21:01:40.864Z,83.87
2023-01-05T21:04:07.063Z,83.78
2023-01-05T21:06:33.419Z,83.72
2023-01-05T21:08:59.744Z,83.65
2023-01-05T21:11:26.205Z,83.93
2023-01-05T21:13:52.482Z,84.10
2023-01-05T21:16:19.008Z,84.09
2023-01-05T21:18:45.218Z,83.64
2023-01-05T21:21:11.564Z,83.60
2023-01-05T21:23:37.947Z,83.78
2023-01-05T21:26:06.196Z,83.90
2023-01-05T21:28:30.690Z,84.17
2023-01-05T21:30:57.067Z,84.55
2023-01-05T21:33:23.465Z,84.49
2023-01-05T21:35:49.855Z,84.63
2023-01-05T21:38:16.168Z,84.68
2023-01-05T21:40:42.561Z,84.77
2023-01-05T21:43:08.912Z,84.90
2023-01-05T21:45:35.319Z,84.60
2023-01-05T21:48:01.655Z,84.66
2023-01-05T21:50:28.027Z,84.30
2023-01-05T21:52:54.320Z,84.27
2023-01-05T21:55:20.664Z,84.59
2023-01-05T21:57:46.996Z,85.21
2023-01-05T22:00:13.410Z,85.22
2023-01-05T22:02:39.756Z,85.38
2023-01-05T22:05:06.096Z,85.32
2023-01-05T22:07:32.515Z,85.26
2023-01-05T22:09:58.992Z,84.92
2023-01-05T22:12:25.352Z,84.71
2023-01-05T22:14:51.689Z,84.43
2023-01-05T22:17:18.062Z,84.36
2023-01-05T22:19:44.481Z,84.11
2023-01-05T22:22:10.857Z,83.77
2023-01-05T22:24:37.240Z,84.54
2023-01-05T22:27:03.574Z,86.16
2023-01-05T22:29:30.009Z,86.71
2023-01-05T22:31:56.422Z,86.73
2023-01-05T22:34:22.684Z,86.74
2023-01-05T22:36:49.072Z,86.82
2023-01-05T22:39:15.485Z,87.06
2023-01-05T22:41:41.867Z,87.02
2023-01-05T22:44:08.186Z,86.55
2023-01-05T22:46:34.573Z,85.90
2023-01-05T22:49:00.896Z,85.66
2023-01-05T22:51:27.285Z,84.91
2023-01-05T22:53:53.655Z,85.30
2023-01-05T22:56:20.010Z,84.62
2023-01-05T22:58:46.343Z,83.98
2023-01-05T23:01:12.786Z,83.99
2023-01-05T23:03:39.049Z,84.32
2023-01-05T23:06:05.407Z,84.14
2023-01-05T23:08:31.738Z,84.06
2023-01-05T23:10:58.091Z,83.87
2023-01-05T23:13:24.450Z,83.66
2023-01-05T23:15:50.795Z,83.35
2023-01-05T23:18:17.140Z,82.49
2023-01-05T23:20:43.565Z,82.09
2023-01-05T23:23:09.881Z,81.63
2023-01-05T23:25:36.277Z,81.76
2023-01-05T23:28:02.593Z,81.42
2023-01-05T23:30:29.007Z,81.05
2023-01-05T23:32:55.311Z,81.12
2023-01-05T23:35:21.740Z,80.82
2023-01-05T23:37:48.020Z,80.25
2023-01-05T23:40:14.444Z,79.90
2023-01-05T23:42:40.769Z,79.33
2023-01-05T23:45:07.145Z,78.97
2023-01-05T23:47:33.457Z,78.65
2023-01-05T23:49:59.817Z,78.70
2023-01-05T23:52:26.213Z,78.55
2023-01-05T23:54:52.621Z,78.30
2023-01-05T23:57:18.949Z,78.75
2023-01-05T23:59:45.360Z,78.44
